Používaním stránok prevádzkovaných PROFIPILOT, s.r.o. súhlasíte s používaním cookies, ktoré nám pomáhajú zabezpečiť lepšie služby.OK

Briefing

MAPA | METAR | TAF | METEO SITUÁCIA
MAPA | METAR | TAF | METEO SITUÁCIA

Predpoveď na dnes

Oblačno až zamračené, prechodne zmenšená oblačnosť. Miestami dážď, najmä v Trenčianskom a Žilinskom kraji, vo vysokých horských polohách sneženie. Ráno a dopoludnia na východe ojedinele hmla. Najvyššia denná teplota 10 až 15, na severe miestami okolo 8 st. Teplota na horách vo výške 1500 m okolo 1 st., popoludní otepľovanie. Prevažne juhozápadný vietor 3 až 9 m/s, v nárazoch miestami okolo 14 m/s (10 až 30 km/h, nárazy okolo 50 km/h). Na hrebeňoch hôr búrlivý vietor až silná víchrica. Predpokladané množstvo zrážok: do 7 mm / na hrebeňoch Tatier do 7 cm snehu

SHMÚ, OMPaV, MS 23.2.2017 05:00 SEČ

MAPA | METAR | TAF | METEO SITUÁCIA

TAF - Letisková predpoveď

23.02.2017 - 08:00 UTC

TAF LZSL 230800Z 2309/2318 26008KT 9999 SCT020 BKN035
     TEMPO 2309/2312 27018KT -RA BKN014 OVC030
     BECMG 2316/2318 21005KT FEW005 BKN070=
 TAF LZPP 230800Z 2309/2318 24012KT 9999 SCT020 BKN035
     PROB30 TEMPO 2309/2310 18005KT 4500 -RA SCT006 OVC030
     BECMG 2316/2318 19010KT FEW020 BKN080=
 TAF LZZI 230800Z 2309/2318 24010KT 9999 SCT015 OVC030
     TEMPO 2309/2313 21005KT 4000 -RA BKN013 OVC017
     BECMG 2315/2317 SCT017 BKN070=
 

23.02.2017 - 05:00 UTC

TAF LZIB 230500Z 2306/2406 26015KT 9999 FEW040 BKN070
     BECMG 2312/2314 20008KT
     BECMG 2323/2401 30025G35KT 9999 SCT035 BKN080=
 TAF LZKZ 230500Z 2306/2406 34005KT 9999 SCT020 BKN050
     PROB40 TEMPO 2309/2318 -RA
     TEMPO 2310/2316 22015KT=
 TAF LZTT 230500Z 2306/2406 25018KT 9999 SCT030 BKN080
     PROB40 TEMPO 2306/2318 27020G32KT -RA SCT015 BKN030=
 

23.02.2017 - 05:00 UTC

TAF LZSL 230500Z 2306/2315 26010KT 9999 FEW025 BKN033
     PROB40 TEMPO 2306/2312 27016KT -RA BKN010 OVC030=
 TAF LZPP 230500Z 2306/2315 20010KT 9999 SCT040 BKN055
     PROB40 TEMPO 2306/2309 24015KT -RA SCT006 BKN040=
 TAF LZZI 230500Z 2306/2315 26008KT 9999 SCT015 OVC030
     PROB40 TEMPO 2306/2313 24004KT 5000 -RA BR BKN012 OVC025=
 

23.02.2017 - 02:00 UTC

TAF LZSL 230200Z 2303/2312 26010KT 9999 FEW025 BKN033
     PROB40 TEMPO 2303/2312 27016KT -RA BKN010 OVC030=
 TAF LZZI 230200Z 2303/2312 25008KT 9999 SCT015 OVC030
     PROB40 TEMPO 2303/2312 25008KT 4500 -RA BR BKN012 OVC025=
 
MAPA | METAR | TAF | METEO SITUÁCIA

METAR - Letisková meteo správa

Letisková meteorologická správa METAR

Meteorologické informácie z ďalších profesionálnych meteorologických staníc SHMÚ zobrazené v tvare zodpovedajúcom pravidlám kódovania správ METAR sú uvedené v položke „METSYN Informácie o správe METAR

23.02.2017 - 09:00 UTC

METAR LZIB 230900Z 20010KT 9999 -RA FEW024 SCT066 BKN072 10/07 Q1007
 NOSIG=
 METAR LZKZ 230900Z 03006KT 9999 FEW028 BKN060 07/05 Q1005 NOSIG=
 METAR LZPP 230900Z 19004KT 9999 OVC035 09/07 Q1007=
 METAR LZSL 230900Z VRB02KT 9999 -RA BKN031 08/06 Q1006=
 METAR LZTT 230900Z VRB05KT 9999 -RA SCT011 BKN056 07/04 Q1003 NOSIG=
 METAR LZZI 230900Z 25007KT 210V320 9999 OVC024 08/06 Q1005=
 

23.02.2017 - 08:30 UTC

METAR LZIB 230830Z 24014KT 9999 -RA FEW024 BKN066 13/06 Q1007 NOSIG=
 METAR LZKZ 230830Z 03006KT 9999 FEW027 BKN060 06/04 Q1005 NOSIG=
 METAR LZPP 230830Z 19003KT 9999 OVC035 09/07 Q1007=
 METAR LZSL 230830Z 28008KT 240V310 9999 -RA FEW022 BKN034 08/06
 Q1006=
 METAR LZTT 230830Z 33008KT 240V020 9999 -RA FEW011 SCT056 07/05
 Q1003 NOSIG=
 METAR LZZI 230830Z 28006KT 250V310 9999 OVC023 07/05 Q1005=
 

23.02.2017 - 09:00 UTC

METAR LZMC 230900Z 23008KT CAVOK 11/05 Q1007=
 METAR LZPW 230900Z 06006KT 3000 BR SCT003 OVC030 03/02
 Q1005=
 
načítavam...